createdAt,value
2023-01-28T00:00:09.884Z,83.70
2023-01-28T00:01:15.075Z,83.72
2023-01-28T00:02:17.639Z,83.72
2023-01-28T00:03:21.046Z,83.78
2023-01-28T00:04:23.334Z,83.98
2023-01-28T00:05:25.779Z,84.30
2023-01-28T00:06:28.108Z,84.78
2023-01-28T00:07:30.694Z,84.21
2023-01-28T00:08:36.623Z,84.54
2023-01-28T00:09:39.043Z,84.36
2023-01-28T00:11:54.349Z,83.66
2023-01-28T00:12:56.803Z,83.94
2023-01-28T00:13:59.481Z,84.37
2023-01-28T00:15:03.350Z,83.83
2023-01-28T00:16:08.246Z,84.29
2023-01-28T00:17:10.283Z,84.62
2023-01-28T00:18:13.515Z,84.78
2023-01-28T00:19:15.974Z,85.06
2023-01-28T00:20:18.674Z,84.94
2023-01-28T00:21:21.012Z,84.53
2023-01-28T00:22:23.143Z,84.46
2023-01-28T00:23:27.206Z,84.55
2023-01-28T00:24:29.385Z,85.19
2023-01-28T00:25:31.435Z,84.94
2023-01-28T00:27:54.550Z,84.70
2023-01-28T00:28:57.749Z,84.61
2023-01-28T00:29:59.793Z,84.58
2023-01-28T00:32:21.310Z,84.72
2023-01-28T00:33:23.626Z,84.88
2023-01-28T00:34:25.624Z,84.51
2023-01-28T00:35:28.763Z,84.82
2023-01-28T00:36:32.105Z,85.05
2023-01-28T00:37:36.141Z,84.91
2023-01-28T00:38:39.038Z,84.90
2023-01-28T00:39:41.137Z,84.70
2023-01-28T00:40:44.343Z,85.24
2023-01-28T00:41:46.349Z,84.89
2023-01-28T00:42:48.281Z,84.38
2023-01-28T00:43:50.805Z,84.38
2023-01-28T00:44:53.427Z,84.88
2023-01-28T00:45:57.825Z,84.84
2023-01-28T00:47:00.405Z,84.85
2023-01-28T00:48:02.296Z,84.31
2023-01-28T00:49:04.329Z,84.14
2023-01-28T00:50:07.056Z,83.89
2023-01-28T00:51:11.382Z,83.33
2023-01-28T00:52:13.616Z,83.27
2023-01-28T00:53:16.034Z,83.27
2023-01-28T00:54:21.277Z,83.37
2023-01-28T00:55:23.702Z,83.45
2023-01-28T00:56:25.895Z,84.04
2023-01-28T00:57:27.989Z,84.71
2023-01-28T00:58:30.680Z,83.92
2023-01-28T00:59:32.621Z,84.41
2023-01-28T01:00:34.997Z,85.04
2023-01-28T01:01:37.081Z,85.11
2023-01-28T01:02:42.017Z,84.76
2023-01-28T01:03:45.131Z,84.89
2023-01-28T01:04:49.219Z,85.11
2023-01-28T01:05:51.207Z,85.10
2023-01-28T01:06:53.503Z,84.76
2023-01-28T01:07:55.738Z,84.66
2023-01-28T01:08:57.714Z,84.63
2023-01-28T01:10:03.933Z,84.83
2023-01-28T01:11:07.766Z,84.83
2023-01-28T01:12:09.715Z,84.57
2023-01-28T01:13:12.807Z,84.59
2023-01-28T01:14:15.802Z,84.61
2023-01-28T01:15:19.442Z,84.20
2023-01-28T01:16:24.884Z,84.64
2023-01-28T01:17:31.733Z,84.48
2023-01-28T01:18:34.421Z,84.46
2023-01-28T01:19:36.920Z,83.63
2023-01-28T01:20:43.307Z,83.98
2023-01-28T01:21:47.461Z,83.36
2023-01-28T01:22:49.848Z,83.35
2023-01-28T01:23:53.316Z,83.28
2023-01-28T01:24:57.034Z,83.94
2023-01-28T01:25:59.298Z,83.83
2023-01-28T01:27:01.917Z,83.91
2023-01-28T01:28:04.317Z,83.39
2023-01-28T01:29:06.432Z,83.42
2023-01-28T01:30:11.628Z,83.41
2023-01-28T01:31:16.998Z,83.96
2023-01-28T01:32:19.946Z,83.56
2023-01-28T01:33:22.036Z,83.60
2023-01-28T01:34:25.375Z,82.81
2023-01-28T01:35:27.804Z,82.81
2023-01-28T01:36:31.101Z,82.23
2023-01-28T01:37:36.125Z,82.92
2023-01-28T01:38:39.797Z,82.92
2023-01-28T01:39:43.057Z,83.25
2023-01-28T01:40:45.422Z,82.88
2023-01-28T01:41:47.653Z,82.90
2023-01-28T01:42:50.696Z,82.58
2023-01-28T01:43:56.492Z,82.76
2023-01-28T01:45:05.430Z,82.59
2023-01-28T01:46:08.489Z,82.94
2023-01-28T01:47:11.385Z,83.44
2023-01-28T01:48:22.636Z,84.07
2023-01-28T01:49:28.217Z,84.00
2023-01-28T01:50:37.338Z,84.30
2023-01-28T01:51:40.111Z,84.64
2023-01-28T01:52:43.762Z,85.26
2023-01-28T01:53:49.296Z,84.48
2023-01-28T05:40:43.162Z,87.58
2023-01-28T05:41:45.646Z,87.85
2023-01-28T05:42:48.065Z,88.02
2023-01-28T05:43:58.836Z,87.16
2023-01-28T05:45:07.259Z,86.95
2023-01-28T05:46:13.334Z,86.75
2023-01-28T05:47:30.374Z,87.22
2023-01-28T05:52:01.646Z,86.53
2023-01-28T05:53:06.686Z,85.67
2023-01-28T05:54:09.961Z,84.70
2023-01-28T05:55:12.376Z,84.63
2023-01-28T05:56:15.382Z,84.37
2023-01-28T05:57:18.038Z,83.59
2023-01-28T05:58:21.086Z,83.15
2023-01-28T05:59:23.974Z,83.25
2023-01-28T06:00:28.135Z,83.23
2023-01-28T06:01:31.160Z,83.75
2023-01-28T06:02:34.444Z,84.10
2023-01-28T06:03:36.408Z,84.54
2023-01-28T06:04:39.163Z,84.31
2023-01-28T06:05:41.570Z,84.27
2023-01-28T06:06:44.535Z,84.21
2023-01-28T06:07:47.824Z,84.28
2023-01-28T06:08:51.194Z,84.56
2023-01-28T06:09:56.220Z,84.42
2023-01-28T06:10:58.388Z,84.90
2023-01-28T06:12:00.609Z,85.25
2023-01-28T06:13:03.157Z,85.87
2023-01-28T06:14:13.155Z,85.70
2023-01-28T06:16:29.606Z,86.09
2023-01-28T06:17:36.821Z,84.85
2023-01-28T06:18:44.256Z,84.35
2023-01-28T06:19:46.552Z,84.53
2023-01-28T06:20:50.973Z,84.48
2023-01-28T06:21:53.344Z,84.57
2023-01-28T06:22:56.302Z,85.09
2023-01-28T06:23:59.070Z,84.97
2023-01-28T06:25:01.236Z,84.93
2023-01-28T06:26:03.792Z,84.11
2023-01-28T06:27:06.584Z,83.89
2023-01-28T06:28:10.382Z,84.08
2023-01-28T06:29:13.140Z,84.44
2023-01-28T06:30:16.730Z,84.27
2023-01-28T06:31:19.188Z,84.15
2023-01-28T06:32:22.547Z,83.16
2023-01-28T06:33:25.961Z,82.58
2023-01-28T06:34:28.257Z,82.32
2023-01-28T06:35:30.330Z,81.75
2023-01-28T06:36:33.065Z,80.95
2023-01-28T06:37:35.339Z,81.16
2023-01-28T06:38:37.430Z,80.60
2023-01-28T06:39:39.522Z,80.74
2023-01-28T06:40:42.422Z,80.50
2023-01-28T06:41:45.504Z,79.77
2023-01-28T06:42:48.122Z,79.41
2023-01-28T06:43:51.481Z,79.33
2023-01-28T06:44:53.612Z,79.24
2023-01-28T06:45:56.774Z,78.74
2023-01-28T06:46:59.082Z,78.22
2023-01-28T06:48:01.573Z,78.61
2023-01-28T06:49:05.056Z,78.43
2023-01-28T06:50:09.716Z,78.79
2023-01-28T06:51:12.059Z,79.15
2023-01-28T06:52:15.057Z,79.92
2023-01-28T06:53:17.993Z,79.80
2023-01-28T06:54:20.366Z,80.09
2023-01-28T06:55:22.367Z,80.71
2023-01-28T06:56:24.667Z,80.74
2023-01-28T06:57:26.609Z,80.79
2023-01-28T06:58:28.439Z,81.42
2023-01-28T06:59:30.406Z,82.84
2023-01-28T07:00:33.858Z,82.84
2023-01-28T07:01:36.489Z,83.87
2023-01-28T07:02:39.943Z,83.29
2023-01-28T07:03:42.271Z,83.55
2023-01-28T07:04:44.383Z,83.85
2023-01-28T07:05:46.904Z,84.03
2023-01-28T07:06:49.118Z,83.87
2023-01-28T07:07:51.693Z,83.87
2023-01-28T07:08:53.791Z,83.87
2023-01-28T07:09:55.945Z,82.77
2023-01-28T07:10:59.948Z,82.23
2023-01-28T07:12:06.143Z,81.57
2023-01-28T07:13:08.258Z,81.54
2023-01-28T07:14:10.382Z,81.69
2023-01-28T07:15:14.625Z,81.84
2023-01-28T07:16:17.231Z,81.79
2023-01-28T07:17:19.951Z,81.59
2023-01-28T07:18:22.405Z,81.03
2023-01-28T07:19:25.583Z,81.02
2023-01-28T07:20:28.176Z,80.86
2023-01-28T07:21:30.595Z,80.64
2023-01-28T07:22:32.857Z,81.58
2023-01-28T07:23:36.370Z,82.73
2023-01-28T07:24:38.638Z,83.16
2023-01-28T07:25:40.785Z,83.86
2023-01-28T07:26:42.870Z,84.46
2023-01-28T07:27:51.671Z,84.64
2023-01-28T07:28:54.832Z,84.96
2023-01-28T07:29:57.232Z,85.35
2023-01-28T07:30:59.825Z,85.30
2023-01-28T07:32:03.289Z,83.98
2023-01-28T07:33:05.361Z,83.95
2023-01-28T07:34:09.404Z,84.02
2023-01-28T07:35:14.003Z,83.78
2023-01-28T07:36:16.331Z,83.83
2023-01-28T07:37:18.548Z,82.79
2023-01-28T07:38:21.199Z,82.47
2023-01-28T07:39:23.556Z,82.14
2023-01-28T07:40:27.185Z,82.64
2023-01-28T07:41:30.341Z,83.26
2023-01-28T07:42:34.811Z,83.02
2023-01-28T07:43:39.547Z,83.54
2023-01-28T07:44:42.858Z,83.09
2023-01-28T07:45:48.494Z,82.74
2023-01-28T07:46:50.100Z,83.49
2023-01-28T07:47:57.298Z,82.91
2023-01-28T07:48:59.762Z,82.94
2023-01-28T07:50:02.152Z,82.02
2023-01-28T07:51:04.561Z,82.14
2023-01-28T07:52:09.000Z,83.19
2023-01-28T07:53:11.834Z,82.67
2023-01-28T07:54:13.939Z,82.71
2023-01-28T07:55:18.300Z,82.68
2023-01-28T07:56:20.433Z,83.06
2023-01-28T07:57:26.457Z,82.95
2023-01-28T07:58:28.608Z,83.74
2023-01-28T07:59:30.510Z,85.29
2023-01-28T08:00:35.376Z,84.25
2023-01-28T08:01:38.889Z,84.19
2023-01-28T08:02:40.991Z,84.80
2023-01-28T08:03:43.647Z,84.44
2023-01-28T08:04:46.015Z,84.44
2023-01-28T08:05:51.203Z,84.95
2023-01-28T08:06:53.859Z,84.81
2023-01-28T08:07:58.348Z,84.63
2023-01-28T08:09:00.302Z,84.53
2023-01-28T08:10:02.853Z,83.72
2023-01-28T08:11:08.980Z,83.45
2023-01-28T08:12:11.223Z,82.90
2023-01-28T08:13:15.313Z,83.67
2023-01-28T08:14:17.633Z,83.11
2023-01-28T08:15:20.281Z,82.71
2023-01-28T08:16:22.419Z,83.45
2023-01-28T08:17:24.648Z,83.00
2023-01-28T08:18:26.771Z,82.97
2023-01-28T08:19:28.787Z,83.22
2023-01-28T08:20:31.817Z,83.15
2023-01-28T08:21:34.653Z,83.67
2023-01-28T08:22:36.788Z,83.09
2023-01-28T08:23:38.795Z,83.73
2023-01-28T08:24:40.914Z,83.73
2023-01-28T08:25:43.599Z,83.63
2023-01-28T08:26:48.757Z,82.97
2023-01-28T08:27:50.900Z,83.52
2023-01-28T08:28:52.783Z,83.44
2023-01-28T08:29:55.031Z,81.80
2023-01-28T08:31:00.446Z,81.99
2023-01-28T08:32:02.690Z,81.90
2023-01-28T08:33:06.823Z,81.43
2023-01-28T08:34:09.172Z,80.86
2023-01-28T08:35:11.206Z,80.47
2023-01-28T08:36:13.330Z,79.74
2023-01-28T08:37:15.348Z,79.93
2023-01-28T08:38:17.492Z,79.11
2023-01-28T08:39:20.507Z,78.38
2023-01-28T08:40:22.900Z,78.99
2023-01-28T08:41:25.033Z,79.05
2023-01-28T08:42:27.288Z,79.43
2023-01-28T08:43:29.899Z,78.31
2023-01-28T08:44:32.664Z,78.09
2023-01-28T08:45:35.079Z,78.31
2023-01-28T08:46:37.336Z,78.31
2023-01-28T08:47:49.897Z,78.24
2023-01-28T08:48:52.263Z,78.74
2023-01-28T08:49:54.508Z,78.53
2023-01-28T08:50:59.427Z,79.06
2023-01-28T08:52:01.670Z,79.11
2023-01-28T08:53:07.250Z,78.49
2023-01-28T08:54:09.525Z,78.51
2023-01-28T08:55:12.659Z,77.83
2023-01-28T08:56:15.946Z,77.38
2023-01-28T08:57:18.015Z,77.45
2023-01-28T08:58:21.488Z,77.44
2023-01-28T08:59:23.548Z,76.63
2023-01-28T09:00:25.817Z,76.41
2023-01-28T09:01:29.445Z,77.64
2023-01-28T09:02:32.830Z,76.89
2023-01-28T09:03:36.386Z,76.48
2023-01-28T09:04:38.464Z,76.55
2023-01-28T09:05:41.228Z,76.52
2023-01-28T09:06:43.433Z,76.48
2023-01-28T09:07:46.253Z,76.26
2023-01-28T09:08:48.450Z,75.69
2023-01-28T09:09:50.488Z,75.20
2023-01-28T09:10:59.324Z,74.48
2023-01-28T09:12:01.699Z,74.30
2023-01-28T09:13:09.340Z,74.24
2023-01-28T09:14:11.757Z,74.09
2023-01-28T09:15:14.664Z,74.10
2023-01-28T09:16:16.957Z,75.31
2023-01-28T09:17:20.436Z,75.31
2023-01-28T09:18:22.990Z,74.64
2023-01-28T09:19:25.126Z,76.13
2023-01-28T09:20:27.746Z,76.58
2023-01-28T09:21:30.261Z,77.71
2023-01-28T09:22:33.374Z,76.13
2023-01-28T09:23:37.987Z,75.66
2023-01-28T09:24:40.316Z,75.41
2023-01-28T09:25:42.247Z,75.16
2023-01-28T09:26:44.921Z,74.94
2023-01-28T09:27:47.150Z,74.65
2023-01-28T09:28:49.308Z,74.65
2023-01-28T09:29:52.054Z,75.29
2023-01-28T09:31:07.738Z,74.99
2023-01-28T09:32:10.995Z,75.82
2023-01-28T09:33:13.043Z,75.92
2023-01-28T09:34:15.250Z,76.15
2023-01-28T09:35:19.897Z,75.98
2023-01-28T09:36:23.193Z,76.75
2023-01-28T09:37:25.458Z,76.11
2023-01-28T09:38:29.697Z,76.44
2023-01-28T09:39:32.038Z,76.25
2023-01-28T09:40:37.263Z,75.19
2023-01-28T09:41:45.854Z,75.89
2023-01-28T09:43:00.906Z,75.99
2023-01-28T09:44:06.846Z,75.57
2023-01-28T09:45:27.139Z,74.75
2023-01-28T14:04:07.408Z,58.01
2023-01-28T14:05:35.595Z,57.07
2023-01-28T14:06:48.966Z,57.31
2023-01-28T14:08:18.839Z,57.57
2023-01-28T14:09:36.834Z,59.07
2023-01-28T14:10:53.151Z,58.75
2023-01-28T14:12:11.898Z,57.53
2023-01-28T14:13:53.104Z,57.39
2023-01-28T14:15:23.420Z,57.94
2023-01-28T14:16:33.225Z,58.17
2023-01-28T14:17:48.355Z,58.06
2023-01-28T14:18:52.256Z,58.04
2023-01-28T14:19:57.455Z,59.74
2023-01-28T14:21:05.403Z,59.92
2023-01-28T14:22:10.068Z,60.05
2023-01-28T14:23:18.600Z,60.90
2023-01-28T14:24:21.637Z,60.51
2023-01-28T14:25:35.906Z,60.69
2023-01-28T14:26:57.614Z,61.42
2023-01-28T14:28:02.883Z,61.59
2023-01-28T14:29:41.103Z,62.68
2023-01-28T14:30:53.109Z,62.73
2023-01-28T14:31:56.792Z,62.25
2023-01-28T14:32:59.675Z,62.54
2023-01-28T14:34:25.778Z,63.07
2023-01-28T14:35:33.092Z,63.07
2023-01-28T14:36:45.057Z,63.36
2023-01-28T14:37:47.662Z,63.50
2023-01-28T14:38:50.211Z,63.24
2023-01-28T14:39:59.014Z,64.31
2023-01-28T14:41:01.835Z,64.12
2023-01-28T14:42:05.489Z,64.63
2023-01-28T14:43:12.174Z,64.21
2023-01-28T14:44:28.199Z,64.56
2023-01-28T14:45:53.602Z,64.45
2023-01-28T14:47:14.968Z,64.77
2023-01-28T14:48:20.791Z,64.93
2023-01-28T14:49:45.804Z,65.64
2023-01-28T14:51:04.336Z,64.84
2023-01-28T14:52:25.617Z,65.25
2023-01-28T14:53:59.085Z,65.45
2023-01-28T14:56:51.460Z,66.88
2023-01-28T14:57:58.060Z,66.04
2023-01-28T14:59:19.243Z,66.49
2023-01-28T15:00:27.636Z,66.70
2023-01-28T15:01:31.811Z,66.49
2023-01-28T15:02:35.097Z,66.65
2023-01-28T15:03:41.771Z,65.13
2023-01-28T15:04:47.753Z,65.90
2023-01-28T15:05:53.833Z,66.16
2023-01-28T15:06:59.423Z,67.03
2023-01-28T15:08:02.135Z,67.12
2023-01-28T15:09:12.083Z,66.40
2023-01-28T15:10:22.375Z,66.36
2023-01-28T15:11:28.840Z,66.79
2023-01-28T15:12:35.860Z,66.37
2023-01-28T15:13:47.054Z,66.42
2023-01-28T15:14:49.440Z,67.08
2023-01-28T15:16:00.274Z,66.11
2023-01-28T15:17:04.274Z,66.98
2023-01-28T15:18:24.011Z,67.81
2023-01-28T15:19:35.810Z,67.84
2023-01-28T15:20:38.666Z,66.34
2023-01-28T15:21:44.316Z,66.13
2023-01-28T15:22:47.223Z,66.61
2023-01-28T15:23:53.144Z,66.21
2023-01-28T15:24:56.642Z,66.22
2023-01-28T15:26:10.196Z,65.73
2023-01-28T15:28:33.764Z,66.01
2023-01-28T15:29:37.819Z,66.81
2023-01-28T15:30:43.790Z,66.44
2023-01-28T15:31:56.702Z,67.18
2023-01-28T15:33:18.765Z,66.50
2023-01-28T15:34:25.828Z,67.34
2023-01-28T15:35:29.697Z,67.20
2023-01-28T15:36:33.099Z,67.55
2023-01-28T15:37:36.649Z,67.89
2023-01-28T15:38:40.755Z,67.90
2023-01-28T15:39:47.135Z,67.61
2023-01-28T15:41:00.575Z,67.49
2023-01-28T15:42:07.255Z,67.29
2023-01-28T15:44:44.277Z,67.45
2023-01-28T15:45:54.993Z,67.31
2023-01-28T15:47:00.453Z,67.27
2023-01-28T15:48:07.018Z,67.76
2023-01-28T15:49:18.435Z,67.81
2023-01-28T15:50:26.906Z,68.42
2023-01-28T15:51:33.954Z,68.58
2023-01-28T15:52:42.256Z,68.68
2023-01-28T15:53:49.329Z,68.14
2023-01-28T15:54:53.182Z,67.97
2023-01-28T15:56:04.769Z,68.93
2023-01-28T15:58:36.647Z,69.28
2023-01-28T15:59:38.933Z,69.47
2023-01-28T16:00:41.274Z,69.24
2023-01-28T16:01:44.165Z,68.95
2023-01-28T16:02:49.392Z,69.11
2023-01-28T16:04:04.780Z,68.82
2023-01-28T16:05:10.322Z,69.39
2023-01-28T16:06:19.657Z,69.61
2023-01-28T16:07:22.127Z,69.51
2023-01-28T16:08:31.781Z,69.19
2023-01-28T16:09:36.266Z,69.53
2023-01-28T16:10:39.957Z,69.99
2023-01-28T16:11:45.066Z,70.47
2023-01-28T16:12:55.541Z,70.13
2023-01-28T16:13:58.986Z,69.49
2023-01-28T16:15:02.057Z,69.54
2023-01-28T16:16:05.326Z,69.53
2023-01-28T16:17:08.188Z,69.62
2023-01-28T16:18:31.818Z,69.57
2023-01-28T16:19:40.706Z,69.12
2023-01-28T16:20:46.740Z,69.77
2023-01-28T16:21:48.908Z,70.02
2023-01-28T16:22:53.889Z,70.22
2023-01-28T16:24:26.594Z,70.49
2023-01-28T16:25:32.372Z,71.87
2023-01-28T16:26:35.958Z,72.12
2023-01-28T16:27:38.854Z,73.23
2023-01-28T16:28:41.937Z,73.31
2023-01-28T16:29:45.148Z,73.46
2023-01-28T16:30:47.737Z,73.72
2023-01-28T16:31:51.942Z,73.91
2023-01-28T16:32:56.560Z,73.77
2023-01-28T16:33:58.763Z,73.83
2023-01-28T16:35:01.725Z,73.96
2023-01-28T16:36:08.559Z,73.95
2023-01-28T16:37:09.858Z,72.94
2023-01-28T16:38:15.051Z,72.43
2023-01-28T16:39:17.465Z,72.12
2023-01-28T16:40:22.434Z,71.99
2023-01-28T16:41:28.084Z,72.30
2023-01-28T16:42:31.729Z,72.42
2023-01-28T16:44:38.015Z,72.54
2023-01-28T16:45:42.144Z,72.42
2023-01-28T16:46:46.300Z,72.39
2023-01-28T16:47:49.385Z,72.40
2023-01-28T16:48:51.440Z,72.39
2023-01-28T16:49:53.645Z,72.46
2023-01-28T16:50:57.310Z,72.50
2023-01-28T16:52:00.829Z,72.65
2023-01-28T16:53:04.605Z,73.15
2023-01-28T16:54:06.982Z,73.21
2023-01-28T16:55:15.569Z,72.96
2023-01-28T16:56:30.690Z,74.21
2023-01-28T16:57:26.521Z,74.70
2023-01-28T16:58:29.885Z,75.14
2023-01-28T16:59:32.191Z,75.40
2023-01-28T17:00:36.060Z,76.31
2023-01-28T17:01:39.055Z,76.38
2023-01-28T17:02:41.519Z,76.13
2023-01-28T17:03:43.697Z,76.28
2023-01-28T17:04:45.988Z,76.92
2023-01-28T17:05:48.122Z,77.09
2023-01-28T17:06:52.638Z,76.53
2023-01-28T17:07:56.708Z,75.97
2023-01-28T17:09:00.172Z,76.41
2023-01-28T17:10:04.388Z,75.76
2023-01-28T17:11:07.081Z,76.12
2023-01-28T17:12:09.809Z,75.26
2023-01-28T17:13:12.737Z,75.13
2023-01-28T17:14:15.012Z,75.43
2023-01-28T17:15:18.157Z,75.63
2023-01-28T17:16:20.887Z,75.80
2023-01-28T17:17:23.282Z,75.96
2023-01-28T17:18:25.332Z,76.49
2023-01-28T17:19:27.550Z,75.83
2023-01-28T17:20:30.126Z,75.93
2023-01-28T17:21:32.264Z,76.39
2023-01-28T17:22:35.551Z,76.52
2023-01-28T17:23:38.835Z,76.48
2023-01-28T17:24:41.116Z,75.65
2023-01-28T17:25:43.440Z,76.19
2023-01-28T17:26:45.947Z,76.48
2023-01-28T17:27:50.272Z,76.63
2023-01-28T17:28:59.853Z,76.32
2023-01-28T17:30:02.216Z,76.64
2023-01-28T17:31:09.456Z,77.22
2023-01-28T17:32:12.495Z,76.53
2023-01-28T17:33:15.080Z,76.47
2023-01-28T17:34:17.183Z,76.24
2023-01-28T17:35:19.332Z,76.75
2023-01-28T17:36:23.267Z,76.81
2023-01-28T17:37:27.222Z,77.11
2023-01-28T17:38:29.697Z,77.52
2023-01-28T17:39:31.817Z,77.35
2023-01-28T17:40:36.326Z,77.34
2023-01-28T17:41:38.665Z,77.04
2023-01-28T17:42:41.896Z,77.48
2023-01-28T17:43:46.539Z,77.76
2023-01-28T17:44:48.845Z,77.15
2023-01-28T17:45:51.049Z,77.74
2023-01-28T17:46:53.791Z,77.83
2023-01-28T21:49:19.330Z,86.46
2023-01-28T21:50:22.857Z,86.30
2023-01-28T21:51:35.710Z,86.04
2023-01-28T21:52:37.828Z,86.46
2023-01-28T21:53:41.568Z,86.43
2023-01-28T21:54:45.318Z,86.48
2023-01-28T21:55:49.285Z,86.29
2023-01-28T21:56:53.174Z,86.02
2023-01-28T21:57:57.087Z,85.35
2023-01-28T21:59:19.098Z,84.13
2023-01-28T22:00:23.772Z,83.55
2023-01-28T22:01:25.917Z,83.26
2023-01-28T22:02:28.373Z,83.09
2023-01-28T22:03:31.491Z,83.04
2023-01-28T22:04:36.466Z,82.77
2023-01-28T22:05:39.545Z,82.54
2023-01-28T22:06:42.682Z,82.30
2023-01-28T22:07:45.275Z,82.12
2023-01-28T22:08:47.844Z,82.24
2023-01-28T22:09:52.236Z,82.21
2023-01-28T22:10:56.927Z,81.90
2023-01-28T22:12:01.656Z,81.85
2023-01-28T22:13:03.746Z,81.94
2023-01-28T22:14:06.526Z,81.98
2023-01-28T22:15:10.195Z,81.64
2023-01-28T22:16:12.636Z,81.53
2023-01-28T22:17:15.744Z,81.32
2023-01-28T22:18:17.879Z,81.42
2023-01-28T22:19:20.211Z,81.64
2023-01-28T22:20:22.726Z,81.64
2023-01-28T22:21:24.920Z,81.50
2023-01-28T22:22:26.925Z,81.47
2023-01-28T22:23:29.790Z,81.35
2023-01-28T22:24:32.100Z,81.71
2023-01-28T22:25:35.633Z,81.97
2023-01-28T22:26:39.094Z,82.28
2023-01-28T22:27:41.507Z,82.28
2023-01-28T22:28:44.689Z,82.05
2023-01-28T22:29:46.752Z,82.29
2023-01-28T22:30:50.166Z,82.39
2023-01-28T22:31:54.162Z,82.82
2023-01-28T22:32:56.291Z,82.51
2023-01-28T22:33:58.919Z,82.56
2023-01-28T22:35:01.443Z,82.65
2023-01-28T22:36:10.161Z,82.86
2023-01-28T22:37:12.392Z,82.86
2023-01-28T22:38:14.417Z,82.67
2023-01-28T22:39:17.831Z,82.96
2023-01-28T22:40:19.986Z,83.21
2023-01-28T22:41:22.598Z,83.45
2023-01-28T22:42:24.818Z,83.60
2023-01-28T22:43:26.930Z,83.42
2023-01-28T22:44:29.628Z,83.65
2023-01-28T22:45:31.741Z,83.46
2023-01-28T22:46:35.394Z,83.35
2023-01-28T22:47:37.998Z,83.61
2023-01-28T22:48:40.948Z,83.86
2023-01-28T22:49:43.641Z,83.99
2023-01-28T22:50:45.987Z,84.05
2023-01-28T22:51:49.169Z,84.09
2023-01-28T22:52:53.472Z,84.07
2023-01-28T22:53:56.564Z,83.90
2023-01-28T22:55:00.036Z,83.38
2023-01-28T22:56:02.816Z,83.64
2023-01-28T22:57:05.346Z,83.55
2023-01-28T22:58:08.749Z,83.40
2023-01-28T22:59:11.916Z,83.47
2023-01-28T23:00:16.849Z,83.31
2023-01-28T23:01:19.462Z,83.16
2023-01-28T23:02:22.132Z,83.23
2023-01-28T23:03:24.710Z,82.84
2023-01-28T23:04:27.161Z,82.93
2023-01-28T23:05:29.559Z,82.93
2023-01-28T23:06:33.777Z,82.90
2023-01-28T23:07:36.490Z,82.76
2023-01-28T23:08:40.602Z,82.60
2023-01-28T23:10:58.860Z,82.17
2023-01-28T23:12:01.307Z,82.23
2023-01-28T23:13:05.244Z,82.23
2023-01-28T23:14:26.335Z,82.45
2023-01-28T23:15:48.628Z,82.21
2023-01-28T23:17:09.941Z,81.86
2023-01-28T23:18:39.452Z,81.95
2023-01-28T23:20:00.632Z,82.18
2023-01-28T23:21:25.114Z,82.20
2023-01-28T23:22:52.001Z,82.31
2023-01-28T23:25:22.869Z,82.55
2023-01-28T23:26:25.283Z,82.43
2023-01-28T23:27:27.368Z,82.25
2023-01-28T23:28:31.496Z,82.47
2023-01-28T23:29:34.038Z,82.43
2023-01-28T23:30:36.677Z,82.73
2023-01-28T23:31:45.997Z,82.75
2023-01-28T23:32:50.214Z,82.83
2023-01-28T23:33:52.644Z,82.55
2023-01-28T23:34:54.932Z,82.96
2023-01-28T23:35:58.623Z,82.95
2023-01-28T23:37:02.962Z,83.03
2023-01-28T23:38:05.410Z,83.17
2023-01-28T23:39:07.603Z,83.07
2023-01-28T23:40:11.636Z,83.21
2023-01-28T23:41:13.675Z,83.25
2023-01-28T23:42:18.609Z,83.20
2023-01-28T23:43:21.545Z,83.05
2023-01-28T23:44:25.043Z,82.64
2023-01-28T23:45:28.217Z,82.50
2023-01-28T23:46:39.934Z,82.07
2023-01-28T23:47:38.500Z,81.93
2023-01-28T23:48:41.531Z,81.79
2023-01-28T23:49:43.721Z,81.70
2023-01-28T23:50:46.401Z,81.52
2023-01-28T23:51:49.041Z,81.46
2023-01-28T23:52:51.237Z,81.40
2023-01-28T23:53:53.671Z,81.91
2023-01-28T23:54:56.064Z,82.11
2023-01-28T23:55:58.026Z,82.29
2023-01-28T23:57:01.231Z,82.15
2023-01-28T23:58:03.173Z,82.00
2023-01-28T23:59:05.373Z,81.92
